Ne plus se rappeler de moi
Bonjour et Bienvenue
Pas de session ouverte
Vendredi 22/05/2015
d:\inetpub\wwwroot\acrroussillon\reservation\ACR\IMAGES\IMG1.JPGd:\inetpub\wwwroot\acrroussillon\reservation\ACR\IMAGES\IMG2.JPGd:\inetpub\wwwroot\acrroussillon\reservation\ACR/IMAGES/IMG3.jpg
00:00:00
Horaires du 22/05/2015 (Données à titre indicatif seulement).
Lever du soleil : 06h20 - Coucher du soleil : 21h11 (Heure Locale)
Jour aéronautique : 05h50 - Nuit aéronautique : 21h41 (Heure Locale)
Planning des réservations des aéronefs
Planning des réservations des aéronefs
2015/05/22 15:30
LFMP 221530Z AUTO 31024G38KT CAVOK 21/03 Q1019
Planning des réservations des aéronefs
2015/05/22 12:15
TAF LFMP 221100Z 2212/2312 32020G30KT CAVOK
TEMPO 2212/2312 32030G45KT
Informations sur les aéronefs
Informations sur les aéronefs
Modifications des Types de vols
ATTENTION PLUS DE PAIEMENT EN LIGNE DEPUIS LA MAISON
AEROCLUB DU ROUSSILLON. AVENUE MAURICE BELLONTE. 66000 PERPIGNAN. Tel : 04.68.73.48.18 Fax : 09.55.16.18.97 Courriel : aeroclub-roussillon@hotmail.fr
 METAR / TAF
LIENS UTILES
envoyer un e-mail
d:\inetpub\wwwroot\acrroussillon\reservation\ACR/IMAGES/Logo.jpg
Identifiez vous pour interaction
d:\inetpub\wwwroot\acrroussillon\reservation\ACR/IMAGES/Logo.jpg
Aéro-Club du Roussillon